Time;durP1;ratioP1;P1;durP2;ratioP2;P2;SDS_P1;SDS_P2;PMS_P1;PMS_P2;Temp;Humidity;BMP_temperature;BMP_pressure;BME280_temperature;BME280_humidity;BME280_pressure;Samples;Min_cycle;Max_cycle;Signal;HPM_P1;HPM_P2
2021/12/29 00:01:04;;;;;;;;;;;;;;;4.58;100.00;99371.41;5015091;28;898;-66
2021/12/29 00:03:31;;;;;;;;;;;;;;;4.55;99.90;99368.63;5015088;28;812;-66
2021/12/29 00:05:58;;;;;;;;;;;;;;;4.53;99.84;99370.97;4997308;28;1883;-66
2021/12/29 00:08:25;;;;;;;;;;;;;;;4.49;99.62;99368.16;5014989;28;872;-66
2021/12/29 00:10:55;;;;;;;;;;;;;;;4.46;100.00;99382.59;5014974;28;836;-66
2021/12/29 00:13:25;;;;;;;;;;;;;;;4.45;99.83;99376.31;5014919;28;853;-67
2021/12/29 00:15:57;;;;;;;;;;;;;;;4.45;99.99;99379.06;5014878;28;967;-67
2021/12/29 00:18:28;;;;;;;;;;;;;;;4.46;100.00;99366.19;5015443;28;1035;-67
2021/12/29 00:20:56;;;;;;;;;;;;;;;4.45;100.00;99370.06;5014874;28;875;-67
2021/12/29 00:23:22;;;;;;;;;;;;;;;4.48;99.96;99372.06;4996885;28;1446;-67
2021/12/29 00:25:48;;;;;;;;;;;;;;;4.47;100.00;99371.28;5014633;28;1977;-67
2021/12/29 00:28:14;;;;;;;;;;;;;;;4.48;99.98;99369.31;5014663;28;845;-66
2021/12/29 00:30:41;;;;;;;;;;;;;;;4.48;100.00;99369.31;5014722;28;844;-66
2021/12/29 00:33:09;;;;;;;;;;;;;;;4.47;100.00;99363.06;5014574;28;855;-66
2021/12/29 00:35:38;;;;;;;;;;;;;;;4.46;100.00;99366.19;4996889;28;1176;-67
2021/12/29 00:38:06;;;;;;;;;;;;;;;4.45;99.93;99359.91;5014732;28;927;-66
2021/12/29 00:40:34;;;;;;;;;;;;;;;4.46;100.00;99363.44;4996946;28;1454;-66
2021/12/29 00:43:00;;;;;;;;;;;;;;;4.47;100.00;99363.06;5014287;28;802;-66
2021/12/29 00:45:27;;;;;;;;;;;;;;;4.48;100.00;99352.91;5014286;28;1890;-67
2021/12/29 00:47:54;;;;;;;;;;;;;;;4.48;99.93;99356.44;4996765;28;1453;-67
2021/12/29 00:50:20;;;;;;;;;;;;;;;4.49;99.87;99354.47;5013342;28;875;-67
2021/12/29 00:52:46;;;;;;;;;;;;;;;4.53;100.00;99351.81;5014409;28;845;-67
2021/12/29 00:55:14;;;;;;;;;;;;;;;4.50;100.00;99356.84;5014206;28;820;-66
2021/12/29 00:57:41;;;;;;;;;;;;;;;4.50;99.84;99351.38;5014072;28;872;-67
2021/12/29 01:00:09;;;;;;;;;;;;;;;4.50;100.00;99359.59;5014140;28;824;-67
2021/12/29 01:02:36;;;;;;;;;;;;;;;4.47;100.00;99352.13;5013974;28;890;-67
2021/12/29 01:05:03;;;;;;;;;;;;;;;4.45;100.00;99354.44;4996350;28;1871;-67
2021/12/29 01:07:30;;;;;;;;;;;;;;;4.43;100.00;99355.97;5013994;28;867;-67
2021/12/29 01:09:59;;;;;;;;;;;;;;;4.40;99.87;99346.56;5013864;28;903;-67
2021/12/29 01:12:25;;;;;;;;;;;;;;;4.42;100.00;99346.19;5013956;28;829;-67
2021/12/29 01:14:55;;;;;;;;;;;;;;;4.42;100.00;99341.50;5013793;28;903;-67
2021/12/29 01:17:22;;;;;;;;;;;;;;;4.42;100.00;99338.00;5013750;28;927;-68
2021/12/29 01:19:49;;;;;;;;;;;;;;;4.43;100.00;99345.03;5014014;28;887;-68
2021/12/29 01:22:16;;;;;;;;;;;;;;;4.43;100.00;99342.28;5013490;28;970;-68
2021/12/29 01:24:45;;;;;;;;;;;;;;;4.44;100.00;99349.34;5013492;28;1973;-67
2021/12/29 01:27:13;;;;;;;;;;;;;;;4.46;100.00;99347.81;5013495;28;943;-67
2021/12/29 01:29:40;;;;;;;;;;;;;;;4.47;100.00;99340.38;4995873;28;1315;-67
2021/12/29 01:32:07;;;;;;;;;;;;;;;4.48;99.99;99348.22;5013313;28;961;-67
2021/12/29 01:34:33;;;;;;;;;;;;;;;4.49;100.00;99340.81;5013702;28;809;-67
2021/12/29 01:37:00;;;;;;;;;;;;;;;4.52;100.00;99336.53;5013304;28;812;-67
2021/12/29 01:39:27;;;;;;;;;;;;;;;4.49;100.00;99335.31;4995851;28;1364;-67
2021/12/29 01:41:56;;;;;;;;;;;;;;;4.45;99.78;99331.75;5013218;28;884;-67
2021/12/29 01:44:24;;;;;;;;;;;;;;;4.42;99.83;99324.31;5013224;28;844;-67
2021/12/29 01:46:53;;;;;;;;;;;;;;;4.36;99.99;99315.63;4995497;28;1194;-67
2021/12/29 01:49:19;;;;;;;;;;;;;;;4.29;99.89;99313.59;5013115;28;883;-67
2021/12/29 01:51:59;;;;;;;;;;;;;;;4.23;99.79;99312.34;5012969;28;861;-67
2021/12/29 01:54:26;;;;;;;;;;;;;;;4.21;100.00;99314.66;5013024;28;840;-68
2021/12/29 01:56:54;;;;;;;;;;;;;;;4.26;100.00;99314.31;5013000;28;888;-68
2021/12/29 01:59:22;;;;;;;;;;;;;;;4.30;100.00;99323.38;5013102;28;816;-68
2021/12/29 02:01:48;;;;;;;;;;;;;;;4.32;100.00;99320.25;5012926;28;887;-68
2021/12/29 02:04:14;;;;;;;;;;;;;;;4.32;100.00;99331.22;5012848;28;867;-68
2021/12/29 02:06:41;;;;;;;;;;;;;;;4.32;100.00;99325.75;5012801;28;1949;-68
2021/12/29 02:09:08;;;;;;;;;;;;;;;4.32;100.00;99325.75;5012930;28;880;-68
2021/12/29 02:11:37;;;;;;;;;;;;;;;4.34;100.00;99323.41;5012739;28;855;-68
2021/12/29 02:14:05;;;;;;;;;;;;;;;4.34;100.00;99323.41;5012652;28;867;-68
2021/12/29 02:16:32;;;;;;;;;;;;;;;4.34;100.00;99322.63;5012715;28;824;-68
2021/12/29 02:19:00;;;;;;;;;;;;;;;4.32;100.00;99320.25;4995078;28;1161;-68
2021/12/29 02:21:29;;;;;;;;;;;;;;;4.29;100.00;99313.59;5012385;28;1009;-67
2021/12/29 02:24:18;;;;;;;;;;;;;;;4.26;100.00;99310.81;5012338;28;1223;-67
2021/12/29 02:26:46;;;;;;;;;;;;;;;4.24;100.00;99313.13;5012379;28;1922;-69
2021/12/29 02:29:15;;;;;;;;;;;;;;;4.27;100.00;99312.41;5012679;28;832;-69
2021/12/29 02:31:42;;;;;;;;;;;;;;;4.32;100.00;99301.13;5012665;28;860;-68
2021/12/29 02:34:10;;;;;;;;;;;;;;;4.35;100.00;99305.03;5012284;28;1058;-68
2021/12/29 02:36:43;;;;;;;;;;;;;;;4.37;100.00;99297.25;4994762;28;1527;-68
2021/12/29 02:39:11;;;;;;;;;;;;;;;4.31;100.00;99291.34;4994663;28;1320;-68
2021/12/29 02:41:40;;;;;;;;;;;;;;;4.26;100.00;99300.66;4994586;28;1177;-68
2021/12/29 02:44:10;;;;;;;;;;;;;;;4.21;100.00;99298.25;5012145;28;894;-68
2021/12/29 02:46:38;;;;;;;;;;;;;;;4.21;100.00;99300.19;5012109;28;1895;-68
2021/12/29 02:49:05;;;;;;;;;;;;;;;4.18;100.00;99290.00;5011904;28;888;-68
2021/12/29 02:51:32;;;;;;;;;;;;;;;4.18;100.00;99290.00;5012126;28;777;-68
2021/12/29 02:53:59;;;;;;;;;;;;;;;4.21;100.00;99290.03;5011992;28;896;-68
2021/12/29 02:56:26;;;;;;;;;;;;;;;4.20;100.00;99288.44;5011959;28;883;-68
2021/12/29 02:58:56;;;;;;;;;;;;;;;4.22;100.00;99279.88;5011960;28;805;-67
2021/12/29 03:01:24;;;;;;;;;;;;;;;4.24;100.00;99283.03;5011925;28;887;-67
2021/12/29 03:03:49;;;;;;;;;;;;;;;4.21;100.00;99275.59;5011798;28;865;-67
2021/12/29 03:06:16;;;;;;;;;;;;;;;4.24;100.00;99283.81;5011985;28;1894;-68
2021/12/29 03:08:43;;;;;;;;;;;;;;;4.28;100.00;99283.88;4994207;28;1177;-68
2021/12/29 03:11:09;;;;;;;;;;;;;;;4.27;100.00;99287.78;4994153;28;1303;-69
2021/12/29 03:13:37;;;;;;;;;;;;;;;4.26;100.00;99286.97;5011428;28;820;-70
2021/12/29 03:16:05;;;;;;;;;;;;;;;4.29;100.00;99291.72;5011771;28;880;-70
2021/12/29 03:18:31;;;;;;;;;;;;;;;4.28;100.00;99284.66;5011920;28;900;-70
2021/12/29 03:20:58;;;;;;;;;;;;;;;4.30;100.00;99290.53;5011652;28;860;-70
2021/12/29 03:23:25;;;;;;;;;;;;;;;4.32;100.00;99286.66;5011546;28;1126;-68
2021/12/29 03:25:52;;;;;;;;;;;;;;;4.32;100.00;99292.13;4993940;28;1917;-68
2021/12/29 03:28:20;;;;;;;;;;;;;;;4.28;100.00;99294.81;4994051;28;1331;-69
2021/12/29 03:30:51;;;;;;;;;;;;;;;4.25;100.00;99285.41;5011579;28;947;-69
2021/12/29 03:33:18;;;;;;;;;;;;;;;4.25;100.00;99285.41;4993901;28;1179;-69
2021/12/29 03:35:47;;;;;;;;;;;;;;;4.26;100.00;99286.19;5011563;28;820;-69
2021/12/29 03:38:17;;;;;;;;;;;;;;;4.26;100.00;99283.44;5011583;28;829;-70
2021/12/29 03:40:44;;;;;;;;;;;;;;;4.22;100.00;99285.34;4994078;28;1328;-71
2021/12/29 03:43:11;;;;;;;;;;;;;;;4.21;100.00;99292.78;5011784;28;904;-71
2021/12/29 03:45:39;;;;;;;;;;;;;;;4.21;100.00;99295.50;5011501;28;1953;-71
2021/12/29 03:48:07;;;;;;;;;;;;;;;4.22;100.00;99296.28;4993654;28;1525;-71
2021/12/29 03:50:34;;;;;;;;;;;;;;;4.23;100.00;99298.66;5011555;28;816;-73
2021/12/29 03:53:00;;;;;;;;;;;;;;;4.23;100.00;99292.41;5011369;28;970;-71
2021/12/29 03:55:26;;;;;;;;;;;;;;;4.21;100.00;99289.25;5011432;28;860;-71
2021/12/29 03:57:53;;;;;;;;;;;;;;;4.19;100.00;99297.81;4993893;28;1292;-69
2021/12/29 04:00:20;;;;;;;;;;;;;;;4.16;100.00;99293.13;5011616;28;820;-69
2021/12/29 04:02:47;;;;;;;;;;;;;;;4.13;100.00;99296.56;5011399;28;843;-70
2021/12/29 04:05:15;;;;;;;;;;;;;;;4.06;100.00;99291.81;4993647;28;1890;-70
2021/12/29 04:07:42;;;;;;;;;;;;;;;4.07;100.00;99290.63;5011270;28;808;-71
2021/12/29 04:10:10;;;;;;;;;;;;;;;4.11;100.00;99293.41;4993651;28;1344;-71
2021/12/29 04:12:39;;;;;;;;;;;;;;;4.13;100.00;99282.13;4993599;28;1252;-70
2021/12/29 04:15:07;;;;;;;;;;;;;;;4.17;100.00;99285.69;4993650;28;1237;-71
2021/12/29 04:17:37;;;;;;;;;;;;;;;4.20;100.00;99280.25;5011125;28;984;-71
2021/12/29 04:22:52;;;;;;;;;;;;;;;4.24;100.00;99285.75;5011106;28;631;-72
2021/12/29 04:25:23;;;;;;;;;;;;;;;4.24;100.00;99280.28;4995471;28;1958;-72
2021/12/29 04:27:54;;;;;;;;;;;;;;;4.20;100.00;99272.03;4997108;28;1261;-69
2021/12/29 04:30:22;;;;;;;;;;;;;;;4.20;100.00;99276.72;5014594;28;797;-69
2021/12/29 04:32:50;;;;;;;;;;;;;;;4.19;100.00;99275.94;4996824;28;1303;-68
2021/12/29 04:35:16;;;;;;;;;;;;;;;4.21;100.00;99272.84;5014529;28;840;-70
2021/12/29 04:37:43;;;;;;;;;;;;;;;4.20;100.00;99266.56;5014512;28;922;-72
2021/12/29 04:40:10;;;;;;;;;;;;;;;4.21;100.00;99273.63;5014312;28;872;-72
2021/12/29 04:42:36;;;;;;;;;;;;;;;4.20;100.00;99269.31;5014401;28;891;-70
2021/12/29 04:45:04;;;;;;;;;;;;;;;4.18;100.00;99274.38;5014218;28;1941;-70
2021/12/29 04:47:31;;;;;;;;;;;;;;;4.22;100.00;99268.94;5014179;28;860;-71
2021/12/29 04:50:02;;;;;;;;;;;;;;;4.20;100.00;99263.84;5014219;28;825;-70
2021/12/29 04:52:30;;;;;;;;;;;;;;;4.24;100.00;99269.34;4996774;28;1425;-70
2021/12/29 04:54:57;;;;;;;;;;;;;;;4.29;100.00;99263.56;5014146;28;812;-70
2021/12/29 04:57:23;;;;;;;;;;;;;;;4.21;100.00;99256.44;5011926;28;1368;-69
2021/12/29 04:59:49;;;;;;;;;;;;;;;4.23;100.00;99259.59;5014305;28;845;-69
2021/12/29 05:02:17;;;;;;;;;;;;;;;4.27;100.00;99244.00;5014314;28;899;-70
2021/12/29 05:04:55;;;;;;;;;;;;;;;4.30;100.00;99240.50;5014173;28;1890;-71
2021/12/29 05:10:07;;;;;;;;;;;;;;;4.33;100.00;99244.44;5013868;28;655;-68
2021/12/29 05:12:33;;;;;;;;;;;;;;;4.36;100.00;99239.00;5013907;28;923;-68
2021/12/29 05:15:00;;;;;;;;;;;;;;;4.38;100.00;99244.91;4995991;28;1328;-68
2021/12/29 05:17:27;;;;;;;;;;;;;;;4.42;100.00;99244.94;5013781;28;876;-68
2021/12/29 05:19:53;;;;;;;;;;;;;;;4.43;100.00;99238.31;4996141;28;1284;-68
2021/12/29 05:22:20;;;;;;;;;;;;;;;4.47;100.00;99239.13;5013633;28;824;-68
2021/12/29 05:24:46;;;;;;;;;;;;;;;4.49;100.00;99231.34;4995628;28;1963;-69
2021/12/29 05:27:13;;;;;;;;;;;;;;;4.53;100.00;99239.59;5013608;28;928;-69
2021/12/29 05:29:39;;;;;;;;;;;;;;;4.51;100.00;99239.97;4995882;28;1307;-76
2021/12/29 05:32:07;;;;;;;;;;;;;;;4.41;100.00;99243.34;4996007;28;1129;-73
2021/12/29 05:34:33;;;;;;;;;;;;;;;4.34;100.00;99235.09;5013313;28;876;-73
2021/12/29 05:37:00;;;;;;;;;;;;;;;4.36;100.00;99235.50;5013177;28;853;-73
2021/12/29 05:39:26;;;;;;;;;;;;;;;4.43;100.00;99235.56;5013540;28;860;-72
2021/12/29 05:41:53;;;;;;;;;;;;;;;4.57;100.00;99237.69;5013345;28;783;-72
2021/12/29 05:44:19;;;;;;;;;;;;;;;4.54;100.00;99244.66;4995588;28;1169;-70
2021/12/29 05:46:45;;;;;;;;;;;;;;;4.45;100.00;99242.22;5013079;28;1934;-70
2021/12/29 05:49:11;;;;;;;;;;;;;;;4.47;100.00;99250.06;4995659;28;1448;-71
2021/12/29 05:51:37;;;;;;;;;;;;;;;4.46;100.00;99245.78;4995615;28;1264;-71
2021/12/29 05:54:03;;;;;;;;;;;;;;;4.45;100.00;99246.94;4995799;28;1406;-70
2021/12/29 05:56:30;;;;;;;;;;;;;;;4.43;100.00;99247.28;4995551;28;1290;-70
2021/12/29 05:58:59;;;;;;;;;;;;;;;4.40;100.00;99245.31;5013026;28;846;-70
2021/12/29 06:01:26;;;;;;;;;;;;;;;4.41;100.00;99240.63;4995569;28;1308;-70
2021/12/29 06:03:53;;;;;;;;;;;;;;;4.45;100.00;99244.97;5013262;28;872;-70
2021/12/29 06:06:19;;;;;;;;;;;;;;;4.48;100.00;99246.97;5013199;28;1893;-70
2021/12/29 06:08:46;;;;;;;;;;;;;;;4.50;100.00;99244.66;4995408;28;1204;-70
2021/12/29 06:11:13;;;;;;;;;;;;;;;4.50;100.00;99244.66;5012881;28;821;-73
2021/12/29 06:13:40;;;;;;;;;;;;;;;4.53;100.00;99245.84;5013205;28;828;-72
2021/12/29 06:16:06;;;;;;;;;;;;;;;4.58;100.00;99245.50;5012873;28;923;-73
2021/12/29 06:18:32;;;;;;;;;;;;;;;4.62;100.00;99251.00;5012665;28;940;-72
2021/12/29 06:20:58;;;;;;;;;;;;;;;4.66;100.00;99247.16;4995209;28;1315;-72
2021/12/29 06:23:25;;;;;;;;;;;;;;;4.69;100.00;99246.41;4994598;28;1400;-72
2021/12/29 06:25:52;;;;;;;;;;;;;;;4.68;100.00;99236.59;5012361;28;1914;-72
2021/12/29 06:28:18;;;;;;;;;;;;;;;4.70;100.00;99234.28;5012507;28;868;-73
2021/12/29 06:30:44;;;;;;;;;;;;;;;4.76;100.00;99240.22;5012522;28;793;-73
2021/12/29 06:33:10;;;;;;;;;;;;;;;4.73;100.00;99242.91;4994945;28;925;-72
2021/12/29 06:35:38;;;;;;;;;;;;;;;4.69;100.00;99243.66;5012679;28;849;-73
2021/12/29 06:38:04;;;;;;;;;;;;;;;4.69;100.00;99240.13;5012168;28;861;-72
2021/12/29 06:40:31;;;;;;;;;;;;;;;4.72;100.00;99241.34;5012305;28;836;-72
2021/12/29 06:42:58;;;;;;;;;;;;;;;4.79;100.00;99242.19;4994836;28;888;-72
2021/12/29 06:45:26;;;;;;;;;;;;;;;4.78;100.00;99239.81;5012015;28;1875;-72
2021/12/29 06:47:54;;;;;;;;;;;;;;;4.83;100.00;99234.00;5011479;28;915;-73
2021/12/29 06:50:20;;;;;;;;;;;;;;;4.87;100.00;99224.66;4994390;28;879;-73
2021/12/29 06:52:46;;;;;;;;;;;;;;;4.92;100.00;99234.47;4994588;28;857;-73
2021/12/29 06:55:13;;;;;;;;;;;;;;;5.00;100.00;99225.16;5012335;28;793;-73
2021/12/29 06:57:39;;;;;;;;;;;;;;;5.13;100.00;99230.34;5011953;28;857;-73
2021/12/29 07:00:06;;;;;;;;;;;;;;;5.09;100.00;99224.84;4994621;28;980;-72
2021/12/29 07:02:33;;;;;;;;;;;;;;;5.02;100.00;99230.25;5011911;28;888;-72
2021/12/29 07:05:00;;;;;;;;;;;;;;;5.03;100.00;99226.34;5011858;28;1945;-72
2021/12/29 07:07:26;;;;;;;;;;;;;;;5.10;100.00;99227.19;5011825;28;837;-72
2021/12/29 07:09:53;;;;;;;;;;;;;;;5.17;100.00;99222.94;5012021;28;911;-73
2021/12/29 07:12:19;;;;;;;;;;;;;;;5.20;100.00;99227.66;5011733;28;868;-73
2021/12/29 07:14:46;;;;;;;;;;;;;;;5.19;100.00;99234.31;4994074;28;947;-72
2021/12/29 07:17:13;;;;;;;;;;;;;;;5.13;100.00;99227.59;5011781;28;1053;-72
2021/12/29 07:19:42;;;;;;;;;;;;;;;5.13;100.00;99227.59;4994223;28;2091;-72
2021/12/29 07:22:08;;;;;;;;;;;;;;;5.15;100.00;99237.00;4993918;28;1298;-72
2021/12/29 07:24:54;;;;;;;;;;;;;;;5.20;100.00;99235.88;5011716;28;1545;-77
2021/12/29 07:46:34;;;;;;;;;;;;;;;5.40;100.00;99241.88;4820099;29;1972;-75
2021/12/29 07:59:00;;;;;;;;;;;;;;;5.55;100.00;99240.00;4731812;30;1044;-76
2021/12/29 08:01:47;;;;;;;;;;;;;;;5.63;100.00;99239.72;4722065;30;966;-76
2021/12/29 08:04:30;;;;;;;;;;;;;;;;;;;;;
2021/12/29 08:06:57;;;;;;;;;;;;;;;5.63;100.00;99236.16;4738985;30;1911;-77
2021/12/29 08:32:07;;;;;;;;;;;;;;;5.84;100.00;99233.53;4764155;30;1282;-79
2021/12/29 08:34:46;;;;;;;;;;;;;;;5.88;100.00;99225.31;4789755;29;1248;-80
2021/12/29 08:37:22;;;;;;;;;;;;;;;5.90;100.00;99222.97;4804595;29;1368;-80
2021/12/29 08:39:55;;;;;;;;;;;;;;;5.91;100.00;99225.34;4804853;29;1102;-76
2021/12/29 08:48:56;;;;;;;;;;;;;;;6.00;100.00;99214.06;4806376;29;1292;-80
2021/12/29 09:04:44;;;;;;;;;;;;;;;;;;;;;
2021/12/29 09:10:20;;;;;;;;;;;;;;;6.40;100.00;99197.69;4859776;29;1211;-79
2021/12/29 09:13:00;;;;;;;;;;;;;;;6.37;100.00;99191.03;4888915;29;1089;-79
2021/12/29 09:15:46;;;;;;;;;;;;;;;;;;;;;
2021/12/29 09:18:16;;;;;;;;;;;;;;;6.42;100.00;99182.44;4895287;29;1001;-77
2021/12/29 09:20:45;;;;;;;;;;;;;;;6.44;100.00;99177.31;4908460;29;1069;-77
2021/12/29 09:23:13;;;;;;;;;;;;;;;6.47;100.00;99173.03;4934044;29;1075;-76
2021/12/29 09:25:40;;;;;;;;;;;;;;;6.50;100.00;99174.97;4933934;29;1898;-76
2021/12/29 09:28:23;;;;;;;;;;;;;;;6.48;100.00;99169.09;4936004;29;1328;-76
2021/12/29 09:31:19;;;;;;;;;;;;;;;6.49;100.00;99170.69;4962338;28;1099;-79
2021/12/29 09:33:58;;;;;;;;;;;;;;;;;;;;;
2021/12/29 09:37:05;;;;;;;;;;;;;;;;;;;;;
2021/12/29 09:43:11;;;;;;;;;;;;;;;;;;;;;
2021/12/29 09:48:45;;;;;;;;;;;;;;;6.64;100.00;99149.50;4880167;29;1285;-76
2021/12/29 09:51:18;;;;;;;;;;;;;;;6.61;99.94;99147.53;4877157;29;1063;-77
2021/12/29 09:53:45;;;;;;;;;;;;;;;6.62;100.00;99143.63;4876925;29;1271;-77
2021/12/29 09:56:12;;;;;;;;;;;;;;;6.63;100.00;99137.72;4876874;29;1191;-75
2021/12/29 09:58:38;;;;;;;;;;;;;;;6.70;100.00;99137.72;4876854;29;1175;-76
2021/12/29 10:01:06;;;;;;;;;;;;;;;6.78;99.84;99129.47;4876660;29;1082;-75
2021/12/29 10:03:33;;;;;;;;;;;;;;;6.79;99.96;99131.06;4876820;29;1100;-76
2021/12/29 10:06:00;;;;;;;;;;;;;;;6.74;99.47;99124.78;4876685;29;1886;-74
2021/12/29 10:08:28;;;;;;;;;;;;;;;6.77;99.74;99120.47;4876753;29;1103;-76
2021/12/29 10:10:59;;;;;;;;;;;;;;;6.75;99.78;99115.34;4876678;29;810;-76
2021/12/29 10:13:31;;;;;;;;;;;;;;;6.79;99.85;99114.59;4876637;29;1179;-77
2021/12/29 10:16:04;;;;;;;;;;;;;;;6.94;100.00;99111.41;4876686;29;944;-71
2021/12/29 10:18:31;;;;;;;;;;;;;;;7.06;100.00;99096.50;4889157;29;907;-71
2021/12/29 10:20:59;;;;;;;;;;;;;;;7.07;99.91;99087.06;4932986;29;904;-71
2021/12/29 10:23:34;;;;;;;;;;;;;;;7.19;100.00;99076.81;5003565;28;927;-71
2021/12/29 10:26:11;;;;;;;;;;;;;;;7.15;98.88;99077.63;5012750;28;1878;-71
2021/12/29 10:28:40;;;;;;;;;;;;;;;7.11;99.65;99076.84;5012493;28;1383;-71
2021/12/29 10:31:08;;;;;;;;;;;;;;;7.25;100.00;99073.25;4994866;28;1090;-71
2021/12/29 10:33:37;;;;;;;;;;;;;;;7.25;99.63;99070.50;5012452;28;832;-71
2021/12/29 10:36:14;;;;;;;;;;;;;;;7.19;99.19;99065.81;4994728;28;1590;-71
2021/12/29 10:38:41;;;;;;;;;;;;;;;7.15;99.11;99071.34;5012395;28;809;-71
2021/12/29 10:41:09;;;;;;;;;;;;;;;7.06;99.33;99059.97;4994555;28;1350;-70
2021/12/29 10:43:37;;;;;;;;;;;;;;;7.05;99.27;99050.94;5012202;28;824;-70
2021/12/29 10:46:04;;;;;;;;;;;;;;;7.13;100.00;99046.22;5012388;28;1963;-70
2021/12/29 10:48:30;;;;;;;;;;;;;;;7.11;99.67;99041.13;5012202;28;812;-70
2021/12/29 10:51:04;;;;;;;;;;;;;;;7.13;99.72;99044.25;5012213;28;821;-70
2021/12/29 10:53:32;;;;;;;;;;;;;;;7.16;99.67;99042.66;4994404;28;1249;-70
2021/12/29 10:55:58;;;;;;;;;;;;;;;7.12;99.81;99044.66;5012144;28;1006;-70
2021/12/29 10:58:26;;;;;;;;;;;;;;;7.15;99.86;99032.88;5012075;28;928;-70
2021/12/29 11:01:01;;;;;;;;;;;;;;;7.14;99.37;99036.78;5011959;28;949;-70
2021/12/29 11:03:29;;;;;;;;;;;;;;;7.14;99.22;99034.03;5012121;28;904;-70
2021/12/29 11:06:00;;;;;;;;;;;;;;;7.15;99.15;99022.66;4994326;28;1899;-70
2021/12/29 11:08:44;;;;;;;;;;;;;;;7.14;99.69;99018.31;5011923;28;829;-70
2021/12/29 11:11:11;;;;;;;;;;;;;;;7.23;99.47;99026.16;5011800;28;826;-69
2021/12/29 11:13:38;;;;;;;;;;;;;;;7.19;99.48;99017.16;5011965;28;809;-69
2021/12/29 11:16:05;;;;;;;;;;;;;;;7.21;99.93;99011.25;4994368;28;1452;-69
2021/12/29 11:18:41;;;;;;;;;;;;;;;7.24;99.79;99011.22;5012157;28;844;-69
2021/12/29 11:21:07;;;;;;;;;;;;;;;7.27;99.08;99001.41;5011810;28;813;-70
2021/12/29 11:23:35;;;;;;;;;;;;;;;7.28;100.00;99011.22;5011711;28;930;-69
2021/12/29 11:26:02;;;;;;;;;;;;;;;7.23;99.11;99011.63;5011703;28;1867;-70
2021/12/29 11:28:30;;;;;;;;;;;;;;;7.20;99.52;99013.22;5011471;28;1396;-69
2021/12/29 11:30:58;;;;;;;;;;;;;;;7.23;99.60;99011.63;5011905;28;832;-69
2021/12/29 11:33:29;;;;;;;;;;;;;;;7.26;100.00;99008.09;5012798;28;860;-69
2021/12/29 11:35:55;;;;;;;;;;;;;;;7.32;100.00;98999.03;4998202;28;1317;-69
2021/12/29 11:38:23;;;;;;;;;;;;;;;7.35;100.00;99003.72;5015591;28;832;-69
2021/12/29 11:40:54;;;;;;;;;;;;;;;7.31;99.50;99002.94;4997830;28;1336;-69
2021/12/29 11:43:21;;;;;;;;;;;;;;;7.27;100.00;98991.19;5016406;28;844;-69
2021/12/29 11:45:49;;;;;;;;;;;;;;;7.32;100.00;98995.50;5015370;28;1915;-69
2021/12/29 11:48:23;;;;;;;;;;;;;;;7.40;100.00;98990.75;5016063;28;860;-69
2021/12/29 11:50:52;;;;;;;;;;;;;;;7.48;100.00;98984.78;4997784;28;1196;-69
2021/12/29 11:53:18;;;;;;;;;;;;;;;7.55;100.00;98987.53;5015437;28;820;-69
2021/12/29 11:55:49;;;;;;;;;;;;;;;7.60;99.72;98980.81;5015355;28;852;-69
2021/12/29 11:58:24;;;;;;;;;;;;;;;7.51;99.99;98973.00;5015230;28;828;-69
2021/12/29 12:01:05;;;;;;;;;;;;;;;7.42;99.92;98972.66;5015203;28;1131;-69
2021/12/29 12:03:40;;;;;;;;;;;;;;;7.43;100.00;98981.72;4997565;28;1283;-69
2021/12/29 12:06:18;;;;;;;;;;;;;;;7.43;100.00;98978.97;5015267;28;1947;-69
2021/12/29 12:08:45;;;;;;;;;;;;;;;7.45;100.00;98979.34;5015170;28;852;-69
2021/12/29 12:11:25;;;;;;;;;;;;;;;7.48;99.99;98981.28;5014972;28;896;-69
2021/12/29 12:13:51;;;;;;;;;;;;;;;7.50;100.00;98982.44;5014946;28;837;-69
2021/12/29 12:16:19;;;;;;;;;;;;;;;7.52;100.00;98982.81;5015315;28;832;-69
2021/12/29 12:18:52;;;;;;;;;;;;;;;7.52;100.00;98977.31;5014925;28;919;-67
2021/12/29 12:21:35;;;;;;;;;;;;;;;7.55;99.96;98990.28;5014925;28;836;-67
2021/12/29 12:24:14;;;;;;;;;;;;;;;7.49;100.00;98982.81;5014791;28;805;-67
2021/12/29 12:26:58;;;;;;;;;;;;;;;7.51;100.00;98985.94;4997064;28;1953;-67
2021/12/29 12:29:29;;;;;;;;;;;;;;;7.59;100.00;98983.97;4996847;28;1398;-68
2021/12/29 12:32:15;;;;;;;;;;;;;;;7.62;100.00;98988.66;5014827;28;887;-67
2021/12/29 12:34:50;;;;;;;;;;;;;;;7.63;100.00;98984.72;5014596;28;900;-67
2021/12/29 12:37:18;;;;;;;;;;;;;;;7.62;100.00;98978.44;5014762;28;845;-67
2021/12/29 12:39:56;;;;;;;;;;;;;;;7.56;100.00;98978.06;5014491;28;845;-67
2021/12/29 12:42:23;;;;;;;;;;;;;;;7.49;100.00;98975.38;5014441;28;805;-67
2021/12/29 12:44:50;;;;;;;;;;;;;;;7.46;100.00;98978.13;5013281;28;879;-67
2021/12/29 12:47:16;;;;;;;;;;;;;;;7.43;100.00;98982.47;5014390;28;813;-68
2021/12/29 12:49:45;;;;;;;;;;;;;;;7.42;100.00;98983.66;5014416;28;1057;-68
2021/12/29 12:52:13;;;;;;;;;;;;;;;7.38;100.00;98985.63;4996646;28;1244;-68
2021/12/29 12:54:48;;;;;;;;;;;;;;;7.36;100.00;98982.50;5014166;28;892;-68
2021/12/29 12:57:26;;;;;;;;;;;;;;;7.40;100.00;98982.50;5014236;28;906;-68
2021/12/29 12:59:53;;;;;;;;;;;;;;;7.39;100.00;98981.72;5014153;28;872;-68
2021/12/29 13:02:21;;;;;;;;;;;;;;;7.44;100.00;98986.00;5014296;28;1411;-68
2021/12/29 13:05:06;;;;;;;;;;;;;;;7.42;100.00;98985.63;5014066;28;904;-68
2021/12/29 13:07:33;;;;;;;;;;;;;;;7.42;100.00;98986.41;5013917;28;905;-68
2021/12/29 13:10:00;;;;;;;;;;;;;;;7.39;100.00;98987.22;5013829;28;867;-68
2021/12/29 13:12:32;;;;;;;;;;;;;;;7.31;100.00;98985.69;5013940;28;852;-68
2021/12/29 13:15:03;;;;;;;;;;;;;;;7.29;100.00;98985.28;5013880;28;883;-68
2021/12/29 13:17:30;;;;;;;;;;;;;;;7.29;100.00;98985.28;5014477;28;796;-68
2021/12/29 13:19:56;;;;;;;;;;;;;;;7.29;100.00;98990.78;5013980;28;887;-68
2021/12/29 13:22:26;;;;;;;;;;;;;;;7.30;100.00;98989.63;5014472;28;852;-68
2021/12/29 13:24:52;;;;;;;;;;;;;;;7.21;100.00;98983.75;5014011;28;1890;-68
2021/12/29 13:27:22;;;;;;;;;;;;;;;7.24;100.00;98985.72;4996237;28;1228;-68
2021/12/29 13:29:58;;;;;;;;;;;;;;;7.22;100.00;98975.13;5013408;28;1282;-68
2021/12/29 13:32:27;;;;;;;;;;;;;;;7.21;100.00;98984.56;5013692;28;911;-68
2021/12/29 13:35:05;;;;;;;;;;;;;;;7.20;100.00;98982.22;5013472;28;885;-68
2021/12/29 13:37:33;;;;;;;;;;;;;;;7.19;100.00;98984.19;5013476;28;856;-68
2021/12/29 13:40:00;;;;;;;;;;;;;;;7.21;100.00;98981.00;5013309;28;863;-68
2021/12/29 13:42:27;;;;;;;;;;;;;;;7.23;100.00;98993.16;5013385;28;890;-68
2021/12/29 13:44:56;;;;;;;;;;;;;;;7.24;100.00;98985.72;5013233;28;1906;-68
2021/12/29 13:47:23;;;;;;;;;;;;;;;7.22;100.00;98980.63;5013300;28;824;-68
2021/12/29 13:49:50;;;;;;;;;;;;;;;7.23;100.00;98984.13;4995597;28;1181;-68
2021/12/29 13:52:17;;;;;;;;;;;;;;;7.21;100.00;98978.25;5013147;28;848;-67
2021/12/29 13:54:47;;;;;;;;;;;;;;;7.19;100.00;98977.88;5013167;28;830;-67
2021/12/29 13:57:13;;;;;;;;;;;;;;;7.15;100.00;98973.19;5012928;28;809;-68
2021/12/29 13:59:40;;;;;;;;;;;;;;;7.11;100.00;98975.16;4995415;28;1236;-67
2021/12/29 14:02:06;;;;;;;;;;;;;;;7.08;100.00;98975.97;5013204;28;900;-67
2021/12/29 14:04:35;;;;;;;;;;;;;;;7.05;100.00;98973.22;5012934;28;1115;-67
2021/12/29 14:07:03;;;;;;;;;;;;;;;7.04;100.00;98977.97;4995358;28;1949;-67
2021/12/29 14:09:30;;;;;;;;;;;;;;;7.05;100.00;98974.00;5012723;28;872;-67
2021/12/29 14:12:10;;;;;;;;;;;;;;;7.06;100.00;98970.09;5012825;28;872;-67
2021/12/29 14:14:38;;;;;;;;;;;;;;;7.03;100.00;98981.09;5012832;28;825;-67
2021/12/29 14:17:03;;;;;;;;;;;;;;;7.03;100.00;98979.13;5012917;28;851;-67
2021/12/29 14:19:32;;;;;;;;;;;;;;;7.05;100.00;98979.50;4995003;28;1336;-67
2021/12/29 14:21:59;;;;;;;;;;;;;;;7.08;100.00;98981.47;5012687;28;900;-67
2021/12/29 14:24:25;;;;;;;;;;;;;;;7.14;100.00;98979.06;5012624;28;856;-67
2021/12/29 14:27:01;;;;;;;;;;;;;;;7.16;100.00;98979.47;5012546;28;1886;-67
2021/12/29 14:29:32;;;;;;;;;;;;;;;7.13;100.00;98975.56;4994727;28;1470;-67
2021/12/29 14:32:00;;;;;;;;;;;;;;;7.10;100.00;98984.56;5012387;28;805;-67
2021/12/29 14:34:37;;;;;;;;;;;;;;;7.09;100.00;98980.28;4994874;28;1608;-68
2021/12/29 14:37:07;;;;;;;;;;;;;;;7.06;100.00;98981.09;4994594;28;1240;-67
2021/12/29 14:39:33;;;;;;;;;;;;;;;7.03;100.00;98986.59;4994764;28;1701;-67
2021/12/29 14:42:09;;;;;;;;;;;;;;;7.02;100.00;98988.56;5012251;28;888;-67
2021/12/29 14:44:39;;;;;;;;;;;;;;;7.01;100.00;98989.72;5012566;28;754;-67
2021/12/29 14:47:07;;;;;;;;;;;;;;;7.01;100.00;98991.69;5012967;28;1917;-67
2021/12/29 14:49:34;;;;;;;;;;;;;;;6.90;100.00;98981.53;5012874;28;789;-67